createdAt,value
2023-05-09T00:00:46.665Z,95087.94
2023-05-09T00:03:14.470Z,95091.53
2023-05-09T00:05:41.904Z,95087.19
2023-05-09T00:08:08.786Z,95080.63
2023-05-09T00:10:35.755Z,95075.88
2023-05-09T00:13:02.648Z,95067.47
2023-05-09T00:15:29.432Z,95084.44
2023-05-09T00:17:56.220Z,95087.22
2023-05-09T00:20:23.043Z,95083.66
2023-05-09T00:22:50.422Z,95082.19
2023-05-09T00:25:17.361Z,95071.88
2023-05-09T00:27:44.571Z,95076.03
2023-05-09T00:30:11.864Z,95067.03
2023-05-09T00:32:40.403Z,95072.75
2023-05-09T00:35:08.797Z,95078.47
2023-05-09T00:37:35.940Z,95070.59
2023-05-09T00:40:04.154Z,95071.13
2023-05-09T00:42:31.224Z,95065.47
2023-05-09T00:44:58.147Z,95054.22
2023-05-09T00:47:25.154Z,95059.28
2023-05-09T00:49:52.003Z,95057.59
2023-05-09T00:52:23.342Z,95060.84
2023-05-09T00:54:52.179Z,95060.63
2023-05-09T00:57:19.170Z,95053.59
2023-05-09T00:59:46.415Z,95058.78
2023-05-09T01:02:13.384Z,95057.78
2023-05-09T01:04:41.000Z,95059.38
2023-05-09T01:07:19.319Z,95054.03
2023-05-09T01:09:52.156Z,95049.56
2023-05-09T01:12:34.425Z,95056.16
2023-05-09T01:15:14.062Z,95048.22
2023-05-09T01:17:54.125Z,95057.38
2023-05-09T01:20:42.321Z,95040.63
2023-05-09T01:23:22.138Z,95037.16
2023-05-09T01:26:03.309Z,95047.91
2023-05-09T01:28:52.198Z,95054.25
2023-05-09T01:31:20.210Z,95028.84
2023-05-09T01:33:51.285Z,95038.31
2023-05-09T01:36:21.454Z,95045.38
2023-05-09T01:38:52.245Z,95038.81
2023-05-09T01:41:21.291Z,95041.28
2023-05-09T01:43:50.890Z,95045.44
2023-05-09T01:46:20.656Z,95033.91
2023-05-09T01:48:50.058Z,95030.31
2023-05-09T01:51:17.209Z,95040.78
2023-05-09T01:53:45.412Z,95041.66
2023-05-09T01:56:15.867Z,95033.25
2023-05-09T01:58:43.955Z,95038.53
2023-05-09T02:01:12.050Z,95035.50
2023-05-09T02:03:40.073Z,95021.94
2023-05-09T02:06:08.784Z,95016.75
2023-05-09T02:08:36.237Z,95039.28
2023-05-09T02:11:03.120Z,95020.53
2023-05-09T02:13:29.908Z,95030.38
2023-05-09T02:15:57.428Z,95031.25
2023-05-09T02:18:24.168Z,95020.34
2023-05-09T02:20:51.468Z,95023.28
2023-05-09T02:23:18.615Z,95026.97
2023-05-09T02:25:47.148Z,95008.47
2023-05-09T02:28:14.482Z,95015.13
2023-05-09T02:30:44.392Z,95004.25
2023-05-09T02:33:13.096Z,95007.69
2023-05-09T02:35:45.379Z,94981.44
2023-05-09T02:38:13.712Z,94985.13
2023-05-09T02:40:43.550Z,95006.00
2023-05-09T02:43:11.103Z,95005.66
2023-05-09T02:45:37.914Z,95021.88
2023-05-09T02:48:08.376Z,95000.59
2023-05-09T02:50:36.285Z,95008.69
2023-05-09T02:53:03.077Z,95015.50
2023-05-09T02:55:29.805Z,95019.47
2023-05-09T02:58:09.293Z,94995.00
2023-05-09T03:00:39.569Z,94990.88
2023-05-09T03:03:06.988Z,95008.78
2023-05-09T03:05:34.113Z,95003.25
2023-05-09T03:08:00.860Z,94971.47
2023-05-09T03:10:27.837Z,95006.19
2023-05-09T03:12:54.591Z,94998.41
2023-05-09T03:15:21.759Z,94969.22
2023-05-09T03:17:48.852Z,94982.72
2023-05-09T03:20:16.213Z,94987.28
2023-05-09T03:22:42.908Z,95000.56
2023-05-09T03:25:11.817Z,94996.72
2023-05-09T03:27:39.348Z,94973.13
2023-05-09T03:30:10.355Z,94987.50
2023-05-09T03:32:37.225Z,94989.28
2023-05-09T03:35:04.361Z,94959.97
2023-05-09T03:37:32.429Z,94943.00
2023-05-09T03:39:59.288Z,94971.19
2023-05-09T03:42:26.914Z,94972.41
2023-05-09T03:44:59.405Z,94985.47
2023-05-09T03:47:26.153Z,94984.94
2023-05-09T03:49:53.680Z,94986.22
2023-05-09T03:52:22.843Z,94999.28
2023-05-09T03:54:49.898Z,94982.03
2023-05-09T03:57:17.815Z,94999.91
2023-05-09T03:59:46.332Z,94989.88
2023-05-09T04:02:14.829Z,94995.63
2023-05-09T04:04:42.947Z,94979.34
2023-05-09T04:07:10.072Z,94955.44
2023-05-09T04:09:37.412Z,94954.84
2023-05-09T04:12:04.253Z,94966.41
2023-05-09T04:14:31.036Z,94998.66
2023-05-09T04:16:58.365Z,94999.34
2023-05-09T04:19:25.084Z,95005.31
2023-05-09T04:21:52.267Z,94978.69
2023-05-09T04:24:19.004Z,94997.69
2023-05-09T04:26:48.352Z,94983.72
2023-05-09T04:29:19.220Z,94960.25
2023-05-09T04:31:51.375Z,94976.66
2023-05-09T04:34:19.234Z,94994.69
2023-05-09T04:36:46.200Z,94963.94
2023-05-09T04:39:13.247Z,94988.88
2023-05-09T04:41:48.036Z,94990.47
2023-05-09T04:44:17.261Z,94993.50
2023-05-09T04:46:44.191Z,94992.63
2023-05-09T04:49:11.212Z,94977.09
2023-05-09T04:51:38.049Z,94979.00
2023-05-09T04:54:04.786Z,94973.06
2023-05-09T04:56:35.101Z,94962.44
2023-05-09T04:59:02.198Z,94973.03
2023-05-09T05:01:29.437Z,94963.56
2023-05-09T05:03:56.652Z,94955.09
2023-05-09T05:06:23.332Z,94954.81
2023-05-09T05:08:50.658Z,94964.88
2023-05-09T05:11:21.717Z,94941.97
2023-05-09T05:13:48.744Z,94964.72
2023-05-09T05:16:15.578Z,94946.25
2023-05-09T05:18:42.629Z,94950.03
2023-05-09T05:21:09.943Z,94962.72
2023-05-09T05:23:37.062Z,94957.47
2023-05-09T05:26:03.975Z,94975.81
2023-05-09T05:28:32.572Z,94952.47
2023-05-09T05:30:59.386Z,94941.84
2023-05-09T05:33:26.488Z,94922.59
2023-05-09T05:35:53.640Z,94949.09
2023-05-09T05:38:21.918Z,94970.94
2023-05-09T05:40:52.912Z,94963.34
2023-05-09T05:43:21.289Z,94970.81
2023-05-09T05:45:48.710Z,94963.63
2023-05-09T05:48:18.720Z,94961.91
2023-05-09T05:50:46.814Z,94934.91
2023-05-09T05:53:15.512Z,94984.41
2023-05-09T05:55:45.940Z,94962.59
2023-05-09T05:58:13.188Z,94970.19
2023-05-09T06:00:40.297Z,94952.94
2023-05-09T06:03:08.822Z,94954.53
2023-05-09T06:06:05.046Z,94935.19
2023-05-09T06:08:32.787Z,94968.63
2023-05-09T06:11:01.326Z,94976.94
2023-05-09T06:13:28.462Z,94906.59
2023-05-09T06:16:14.897Z,94961.56
2023-05-09T06:18:45.219Z,94909.16
2023-05-09T06:21:12.105Z,94918.50
2023-05-09T06:23:47.296Z,94939.47
2023-05-09T06:26:24.206Z,94903.88
2023-05-09T06:28:50.943Z,94918.78
2023-05-09T06:31:18.164Z,94937.22
2023-05-09T06:33:44.897Z,94937.09
2023-05-09T06:36:12.117Z,94960.94
2023-05-09T06:38:38.843Z,94906.63
2023-05-09T06:41:05.729Z,94922.25
2023-05-09T06:43:32.686Z,94878.22
2023-05-09T06:45:59.770Z,94932.91
2023-05-09T06:48:26.922Z,94931.13
2023-05-09T06:50:54.124Z,94907.09
2023-05-09T06:53:20.875Z,94893.31
2023-05-09T06:55:48.316Z,94897.72
2023-05-09T06:58:15.417Z,94902.38
2023-05-09T07:00:42.146Z,94899.50
2023-05-09T07:03:10.816Z,94860.16
2023-05-09T07:05:37.971Z,94882.13
2023-05-09T07:08:05.156Z,94902.66
2023-05-09T07:10:32.225Z,94919.75
2023-05-09T07:12:59.102Z,94890.25
2023-05-09T07:15:37.188Z,94922.47
2023-05-09T07:18:09.299Z,94895.88
2023-05-09T07:20:36.229Z,94881.09
2023-05-09T07:23:04.211Z,94894.13
2023-05-09T07:25:31.177Z,94867.34
2023-05-09T07:27:58.218Z,94864.34
2023-05-09T07:30:25.598Z,94868.84
2023-05-09T07:32:53.107Z,94894.72
2023-05-09T07:35:21.068Z,94863.22
2023-05-09T07:37:47.904Z,94846.78
2023-05-09T07:40:15.501Z,94850.25
2023-05-09T07:42:46.264Z,94844.09
2023-05-09T07:45:13.302Z,94874.44
2023-05-09T07:47:40.569Z,94878.81
2023-05-09T07:50:08.430Z,94870.75
2023-05-09T07:52:35.372Z,94843.78
2023-05-09T07:55:02.132Z,94874.53
2023-05-09T07:57:29.217Z,94829.16
2023-05-09T07:59:56.074Z,94813.34
2023-05-09T08:02:22.833Z,94831.38
2023-05-09T08:04:50.531Z,94837.06
2023-05-09T08:07:17.193Z,94865.16
2023-05-09T08:09:44.178Z,94819.66
2023-05-09T08:12:11.281Z,94820.81
2023-05-09T08:14:38.497Z,94784.41
2023-05-09T08:17:05.534Z,94802.75
2023-05-09T08:19:32.260Z,94847.44
2023-05-09T08:21:59.303Z,94786.25
2023-05-09T08:24:26.440Z,94835.00
2023-05-09T08:26:53.665Z,94823.53
2023-05-09T08:29:20.814Z,94819.25
2023-05-09T08:31:47.546Z,94815.00
2023-05-09T08:34:14.568Z,94748.78
2023-05-09T08:36:41.532Z,94801.50
2023-05-09T08:39:10.103Z,94800.69
2023-05-09T08:41:37.204Z,94803.75
2023-05-09T08:44:04.716Z,94811.44
2023-05-09T08:46:38.397Z,94786.56
2023-05-09T08:49:07.348Z,94793.56
2023-05-09T08:51:35.945Z,94816.56
2023-05-09T08:54:02.997Z,94765.69
2023-05-09T08:56:34.811Z,94806.66
2023-05-09T08:59:01.576Z,94785.06
2023-05-09T09:01:29.819Z,94768.31
2023-05-09T09:03:56.824Z,94765.50
2023-05-09T09:06:25.792Z,94756.16
2023-05-09T09:08:56.147Z,94764.06
2023-05-09T09:11:24.130Z,94737.09
2023-05-09T09:13:54.588Z,94768.13
2023-05-09T09:16:26.159Z,94781.78
2023-05-09T09:18:58.020Z,94774.53
2023-05-09T09:21:26.289Z,94750.91
2023-05-09T09:23:56.871Z,94744.94
2023-05-09T09:26:24.803Z,94739.38
2023-05-09T09:28:51.522Z,94749.50
2023-05-09T09:31:27.573Z,94738.59
2023-05-09T09:34:01.849Z,94719.47
2023-05-09T09:36:30.323Z,94752.47
2023-05-09T09:39:00.568Z,94788.78
2023-05-09T09:41:38.681Z,94770.59
2023-05-09T09:44:13.306Z,94771.81
2023-05-09T09:46:53.801Z,94802.88
2023-05-09T09:49:22.930Z,94805.34
2023-05-09T09:51:57.730Z,94758.63
2023-05-09T09:54:28.548Z,94784.13
2023-05-09T09:56:56.643Z,94798.41
2023-05-09T09:59:26.539Z,94758.25
2023-05-09T10:02:07.512Z,94714.66
2023-05-09T10:04:37.065Z,94761.34
2023-05-09T10:07:13.812Z,94723.53
2023-05-09T10:09:41.464Z,94709.25
2023-05-09T10:12:09.223Z,94711.81
2023-05-09T10:14:38.380Z,94714.41
2023-05-09T10:17:05.931Z,94725.53
2023-05-09T10:19:33.511Z,94740.75
2023-05-09T10:22:06.087Z,94717.16
2023-05-09T10:24:48.896Z,94745.53
2023-05-09T10:27:21.979Z,94739.88
2023-05-09T10:30:34.126Z,94696.47
2023-05-09T10:33:04.743Z,94666.41
2023-05-09T10:35:36.851Z,94664.56
2023-05-09T10:38:04.216Z,94672.59
2023-05-09T10:40:32.515Z,94659.06
2023-05-09T10:42:59.357Z,94695.50
2023-05-09T10:45:27.838Z,94647.66
2023-05-09T10:47:56.658Z,94668.41
2023-05-09T10:50:24.160Z,94656.63
2023-05-09T10:53:24.244Z,94623.97
2023-05-09T10:55:56.613Z,94633.38
2023-05-09T10:58:30.106Z,94624.91
2023-05-09T11:00:59.090Z,94633.13
2023-05-09T11:03:27.500Z,94647.78
2023-05-09T11:05:57.262Z,94645.63
2023-05-09T11:08:25.543Z,94634.41
2023-05-09T11:10:54.260Z,94646.47
2023-05-09T11:13:24.087Z,94641.81
2023-05-09T11:15:58.296Z,94600.22
2023-05-09T11:18:25.528Z,94593.47
2023-05-09T11:20:53.119Z,94620.88
2023-05-09T11:23:21.635Z,94552.47
2023-05-09T11:25:49.587Z,94594.03
2023-05-09T11:28:31.637Z,94541.13
2023-05-09T11:31:18.464Z,94606.50
2023-05-09T11:33:49.192Z,94540.13
2023-05-09T11:36:34.860Z,94585.13
2023-05-09T11:39:07.050Z,94530.88
2023-05-09T11:41:42.853Z,94527.13
2023-05-09T11:44:18.401Z,94556.59
2023-05-09T11:46:46.576Z,94538.78
2023-05-09T11:49:13.854Z,94529.50
2023-05-09T11:51:41.332Z,94519.09
2023-05-09T11:54:09.317Z,94498.09
2023-05-09T11:56:37.943Z,94524.72
2023-05-09T11:59:04.728Z,94488.56
2023-05-09T12:01:31.875Z,94516.59
2023-05-09T12:03:59.684Z,94508.59
2023-05-09T12:06:28.494Z,94492.00
2023-05-09T12:08:57.205Z,94506.91
2023-05-09T12:11:24.823Z,94480.19
2023-05-09T12:13:53.078Z,94450.06
2023-05-09T12:16:20.509Z,94470.84
2023-05-09T12:18:51.913Z,94480.41
2023-05-09T12:21:19.919Z,94437.47
2023-05-09T12:23:49.819Z,94470.72
2023-05-09T12:26:18.334Z,94452.47
2023-05-09T12:28:46.179Z,94454.97
2023-05-09T12:31:13.421Z,94496.13
2023-05-09T12:33:40.725Z,94463.38
2023-05-09T12:36:12.066Z,94419.91
2023-05-09T12:38:39.491Z,94418.22
2023-05-09T12:41:22.514Z,94409.31
2023-05-09T12:43:58.472Z,94457.53
2023-05-09T12:46:25.775Z,94441.41
2023-05-09T12:48:54.367Z,94422.03
2023-05-09T12:51:22.266Z,94410.66
2023-05-09T12:53:49.109Z,94406.28
2023-05-09T12:56:18.953Z,94444.19
2023-05-09T12:58:53.511Z,94422.16
2023-05-09T13:01:22.503Z,94397.53
2023-05-09T13:04:00.315Z,94401.91
2023-05-09T13:06:27.152Z,94411.53
2023-05-09T13:09:05.927Z,94388.47
2023-05-09T13:11:33.084Z,94406.56
2023-05-09T13:14:02.690Z,94390.69
2023-05-09T13:16:29.539Z,94364.34
2023-05-09T13:18:56.819Z,94369.16
2023-05-09T13:21:24.028Z,94342.97
2023-05-09T13:23:51.274Z,94349.25
2023-05-09T13:26:18.137Z,94366.75
2023-05-09T13:28:44.984Z,94332.72
2023-05-09T13:31:12.346Z,94354.88
2023-05-09T13:33:39.130Z,94336.28
2023-05-09T13:36:07.222Z,94312.75
2023-05-09T13:38:38.934Z,94328.94
2023-05-09T13:41:08.933Z,94298.84
2023-05-09T13:43:37.067Z,94316.53
2023-05-09T13:46:03.859Z,94311.72
2023-05-09T13:48:31.126Z,94312.69
2023-05-09T13:50:59.979Z,94303.47
2023-05-09T13:53:27.360Z,94315.84
2023-05-09T13:55:54.186Z,94357.78
2023-05-09T13:58:21.252Z,94323.16
2023-05-09T14:00:48.915Z,94308.16
2023-05-09T14:03:16.087Z,94304.09
2023-05-09T14:05:43.422Z,94302.88
2023-05-09T14:08:11.153Z,94302.84
2023-05-09T14:10:38.218Z,94299.22
2023-05-09T14:13:04.937Z,94333.59
2023-05-09T14:15:31.668Z,94314.81
2023-05-09T14:17:59.070Z,94289.34
2023-05-09T14:20:25.856Z,94292.03
2023-05-09T14:22:55.098Z,94302.03
2023-05-09T14:25:22.675Z,94265.13
2023-05-09T14:27:49.795Z,94269.88
2023-05-09T14:30:16.897Z,94285.50
2023-05-09T14:32:44.476Z,94283.94
2023-05-09T14:35:11.882Z,94242.69
2023-05-09T14:37:38.760Z,94246.00
2023-05-09T14:40:06.909Z,94261.28
2023-05-09T14:42:33.996Z,94256.50
2023-05-09T14:45:00.750Z,94261.72
2023-05-09T14:47:28.038Z,94245.19
2023-05-09T14:49:55.640Z,94274.28
2023-05-09T14:52:22.352Z,94268.41
2023-05-09T14:54:49.196Z,94251.44
2023-05-09T14:57:15.876Z,94273.69
2023-05-09T14:59:43.191Z,94232.75
2023-05-09T15:02:10.112Z,94222.41
2023-05-09T15:04:36.893Z,94197.91
2023-05-09T15:07:04.881Z,94219.28
2023-05-09T15:09:32.045Z,94197.00
2023-05-09T15:11:59.265Z,94235.03
2023-05-09T15:14:25.986Z,94210.53
2023-05-09T15:16:53.165Z,94228.69
2023-05-09T15:19:22.004Z,94252.69
2023-05-09T15:21:49.266Z,94223.28
2023-05-09T15:24:17.075Z,94240.19
2023-05-09T15:26:44.523Z,94224.75
2023-05-09T15:29:11.422Z,94204.09
2023-05-09T15:31:38.129Z,94195.41
2023-05-09T15:34:04.888Z,94203.94
2023-05-09T15:36:34.105Z,94187.06
2023-05-09T15:39:01.144Z,94176.53
2023-05-09T15:41:29.951Z,94205.31
2023-05-09T15:43:56.717Z,94210.66
2023-05-09T15:46:24.355Z,94159.53
2023-05-09T15:48:51.828Z,94174.50
2023-05-09T15:51:19.521Z,94174.63
2023-05-09T15:53:46.762Z,94183.38
2023-05-09T15:56:13.957Z,94155.53
2023-05-09T15:58:41.267Z,94187.72
2023-05-09T16:01:11.618Z,94179.41
2023-05-09T16:03:38.756Z,94181.06
2023-05-09T16:06:06.384Z,94201.44
2023-05-09T16:08:33.541Z,94198.75
2023-05-09T16:11:01.948Z,94171.00
2023-05-09T16:13:30.078Z,94177.06
2023-05-09T16:15:58.959Z,94184.75
2023-05-09T16:18:26.221Z,94166.06
2023-05-09T16:20:52.979Z,94153.28
2023-05-09T16:23:21.099Z,94131.94
2023-05-09T16:25:49.845Z,94151.31
2023-05-09T16:28:16.943Z,94119.03
2023-05-09T16:30:44.312Z,94149.41
2023-05-09T16:33:11.177Z,94152.09
2023-05-09T16:35:37.875Z,94137.38
2023-05-09T16:38:05.112Z,94135.81
2023-05-09T16:40:33.200Z,94129.22
2023-05-09T16:43:00.724Z,94122.16
2023-05-09T16:45:27.629Z,94139.25
2023-05-09T16:47:56.014Z,94097.94
2023-05-09T16:50:23.494Z,94095.44
2023-05-09T16:52:50.374Z,94113.91
2023-05-09T16:55:17.452Z,94091.22
2023-05-09T16:57:44.617Z,94115.00
2023-05-09T17:00:11.976Z,94127.09
2023-05-09T17:02:38.779Z,94116.59
2023-05-09T17:05:06.379Z,94116.69
2023-05-09T17:07:33.592Z,94122.22
2023-05-09T17:10:01.182Z,94097.81
2023-05-09T17:12:27.891Z,94107.25
2023-05-09T17:14:54.689Z,94128.06
2023-05-09T17:17:21.782Z,94099.34
2023-05-09T17:19:48.939Z,94112.06
2023-05-09T17:22:16.251Z,94085.72
2023-05-09T17:24:43.015Z,94098.81
2023-05-09T17:27:11.430Z,94133.13
2023-05-09T17:29:38.212Z,94084.81
2023-05-09T17:32:05.518Z,94129.22
2023-05-09T17:34:32.793Z,94084.31
2023-05-09T17:37:02.493Z,94107.34
2023-05-09T17:39:30.001Z,94121.81
2023-05-09T17:41:56.957Z,94075.59
2023-05-09T17:44:24.112Z,94089.44
2023-05-09T17:46:51.107Z,94098.53
2023-05-09T17:49:18.635Z,94101.19
2023-05-09T17:51:46.164Z,94076.44
2023-05-09T17:54:13.064Z,94065.28
2023-05-09T17:56:40.012Z,94083.63
2023-05-09T17:59:07.910Z,94080.41
2023-05-09T18:01:34.986Z,94097.13
2023-05-09T18:04:02.280Z,94060.41
2023-05-09T18:06:29.392Z,94077.09
2023-05-09T18:08:57.577Z,94082.31
2023-05-09T18:11:24.580Z,94055.75
2023-05-09T18:13:51.457Z,94055.59
2023-05-09T18:16:18.187Z,94074.69
2023-05-09T18:18:45.854Z,94085.75
2023-05-09T18:21:12.765Z,94061.69
2023-05-09T18:23:40.083Z,94072.34
2023-05-09T18:26:06.830Z,94080.41
2023-05-09T18:28:39.298Z,94075.91
2023-05-09T18:31:09.402Z,94033.91
2023-05-09T18:33:39.726Z,94059.03
2023-05-09T18:36:11.515Z,94060.00
2023-05-09T18:38:39.401Z,94044.28
2023-05-09T18:41:07.862Z,94050.63
2023-05-09T18:43:36.200Z,94046.75
2023-05-09T18:46:04.012Z,94053.66
2023-05-09T18:48:31.863Z,94048.03
2023-05-09T18:50:58.591Z,94055.03
2023-05-09T18:53:29.061Z,94044.22
2023-05-09T18:55:56.936Z,94063.38
2023-05-09T18:58:24.888Z,94054.59
2023-05-09T19:00:53.059Z,94054.84
2023-05-09T19:03:19.968Z,94044.31
2023-05-09T19:05:47.496Z,94056.06
2023-05-09T19:08:15.081Z,94070.94
2023-05-09T19:10:43.450Z,94053.63
2023-05-09T19:13:10.552Z,94040.81
2023-05-09T19:15:37.540Z,94070.13
2023-05-09T19:18:04.812Z,94024.66
2023-05-09T19:20:32.368Z,94054.06
2023-05-09T19:22:59.396Z,94058.72
2023-05-09T19:25:26.569Z,94056.06
2023-05-09T19:27:53.529Z,94058.16
2023-05-09T19:30:20.902Z,94063.63
2023-05-09T19:32:47.870Z,94064.41
2023-05-09T19:35:14.785Z,94064.06
2023-05-09T19:37:41.680Z,94059.03
2023-05-09T19:40:08.676Z,94055.78
2023-05-09T19:42:36.091Z,94036.78
2023-05-09T19:45:03.714Z,94046.56
2023-05-09T19:47:31.036Z,94046.91
2023-05-09T19:49:58.244Z,94064.06
2023-05-09T19:52:24.963Z,94074.31
2023-05-09T19:54:51.908Z,94074.94
2023-05-09T19:57:27.333Z,94044.03
2023-05-09T19:59:55.415Z,94047.00
2023-05-09T20:02:23.114Z,94030.63
2023-05-09T20:04:50.268Z,94038.75
2023-05-09T20:07:17.881Z,94034.00
2023-05-09T20:09:44.858Z,94054.69
2023-05-09T20:12:13.115Z,94047.94
2023-05-09T20:14:40.051Z,94040.81
2023-05-09T20:17:07.020Z,94052.75
2023-05-09T20:19:34.254Z,94039.59
2023-05-09T20:22:01.846Z,94067.16
2023-05-09T20:24:28.744Z,94028.91
2023-05-09T20:26:55.620Z,94043.66
2023-05-09T20:29:24.399Z,94057.47
2023-05-09T20:31:51.303Z,94061.44
2023-05-09T20:34:20.712Z,94042.91
2023-05-09T20:36:53.253Z,94055.41
2023-05-09T20:39:21.304Z,94053.84
2023-05-09T20:41:49.833Z,94046.69
2023-05-09T20:44:18.443Z,94065.31
2023-05-09T20:46:45.598Z,94051.88
2023-05-09T20:49:12.741Z,94074.06
2023-05-09T20:51:39.628Z,94059.44
2023-05-09T20:54:06.509Z,94051.34
2023-05-09T20:56:35.568Z,94068.59
2023-05-09T20:59:04.438Z,94082.44
2023-05-09T21:01:32.525Z,94128.44
2023-05-09T21:03:59.486Z,94176.19
2023-05-09T21:06:26.300Z,94178.06
2023-05-09T21:08:53.033Z,94165.31
2023-05-09T21:11:19.703Z,94173.34
2023-05-09T21:13:46.401Z,94177.56
2023-05-09T21:16:13.866Z,94169.75
2023-05-09T21:18:40.626Z,94170.53
2023-05-09T21:21:11.348Z,94172.72
2023-05-09T21:23:38.333Z,94172.19
2023-05-09T21:26:05.149Z,94187.72
2023-05-09T21:28:32.873Z,94207.34
2023-05-09T21:31:01.640Z,94201.28
2023-05-09T21:33:29.791Z,94200.34
2023-05-09T21:35:57.198Z,94197.78
2023-05-09T21:38:24.291Z,94211.63
2023-05-09T21:40:51.597Z,94204.09
2023-05-09T21:43:19.495Z,94216.28
2023-05-09T21:45:46.412Z,94207.59
2023-05-09T21:48:13.436Z,94209.38
2023-05-09T21:50:40.465Z,94214.47
2023-05-09T21:53:07.222Z,94212.75
2023-05-09T21:55:34.469Z,94218.81
2023-05-09T21:58:01.656Z,94212.31
2023-05-09T22:00:28.397Z,94206.53
2023-05-09T22:02:55.292Z,94219.41
2023-05-09T22:05:23.516Z,94220.47
2023-05-09T22:07:51.385Z,94221.13
2023-05-09T22:10:18.469Z,94223.09
2023-05-09T22:12:45.322Z,94224.28
2023-05-09T22:15:12.180Z,94224.91
2023-05-09T22:17:39.007Z,94219.13
2023-05-09T22:20:06.821Z,94233.91
2023-05-09T22:22:34.157Z,94228.81
2023-05-09T22:25:01.047Z,94226.69
2023-05-09T22:27:27.840Z,94235.91
2023-05-09T22:29:55.491Z,94233.47
2023-05-09T22:32:22.558Z,94217.16
2023-05-09T22:34:49.534Z,94225.50
2023-05-09T22:37:16.328Z,94216.00
2023-05-09T22:39:44.756Z,94212.50
2023-05-09T22:42:11.541Z,94208.78
2023-05-09T22:44:39.214Z,94202.50
2023-05-09T22:47:09.765Z,94211.47
2023-05-09T22:49:36.708Z,94215.56
2023-05-09T22:52:04.172Z,94208.84
2023-05-09T22:54:31.018Z,94209.38
2023-05-09T22:56:57.710Z,94211.94
2023-05-09T22:59:24.534Z,94218.41
2023-05-09T23:01:51.872Z,94215.03
2023-05-09T23:04:18.949Z,94206.91
2023-05-09T23:06:45.681Z,94207.63
2023-05-09T23:09:12.415Z,94208.25
2023-05-09T23:11:39.425Z,94208.31
2023-05-09T23:14:06.746Z,94207.31
2023-05-09T23:16:33.563Z,94206.03
2023-05-09T23:19:00.557Z,94205.72
2023-05-09T23:21:27.267Z,94211.13
2023-05-09T23:23:54.172Z,94205.91
2023-05-09T23:26:21.194Z,94192.72
2023-05-09T23:28:48.454Z,94204.75
2023-05-09T23:31:15.520Z,94209.50
2023-05-09T23:33:42.328Z,94197.13
2023-05-09T23:36:09.669Z,94188.72
2023-05-09T23:38:36.414Z,94188.03
2023-05-09T23:41:03.572Z,94181.41
2023-05-09T23:43:30.307Z,94181.91
2023-05-09T23:45:57.035Z,94185.66
2023-05-09T23:48:24.279Z,94177.47
2023-05-09T23:50:52.120Z,94181.22
2023-05-09T23:53:18.868Z,94173.38
2023-05-09T23:55:45.631Z,94177.97
2023-05-09T23:58:12.681Z,94169.28
